createdAt,value
2022-09-06T00:00:14.670Z,1.20
2022-09-06T00:02:43.403Z,1.17
2022-09-06T00:05:12.157Z,1.13
2022-09-06T00:07:39.372Z,1.30
2022-09-06T00:10:06.836Z,1.20
2022-09-06T00:12:34.410Z,1.23
2022-09-06T00:15:01.461Z,1.10
2022-09-06T00:17:28.412Z,1.10
2022-09-06T00:19:55.275Z,1.10
2022-09-06T00:22:22.271Z,1.20
2022-09-06T00:24:49.123Z,1.02
2022-09-06T00:27:16.157Z,1.20
2022-09-06T00:29:43.041Z,1.10
2022-09-06T00:32:10.098Z,1.17
2022-09-06T00:34:37.065Z,1.00
2022-09-06T00:37:04.108Z,1.20
2022-09-06T00:39:31.154Z,1.40
2022-09-06T00:41:58.016Z,1.10
2022-09-06T00:44:24.860Z,1.20
2022-09-06T00:46:53.943Z,1.15
2022-09-06T00:49:28.410Z,1.38
2022-09-06T00:52:00.224Z,1.20
2022-09-06T00:54:27.972Z,1.30
2022-09-06T00:56:55.896Z,1.40
2022-09-06T00:59:25.947Z,1.40
2022-09-06T01:01:53.299Z,1.52
2022-09-06T01:04:21.012Z,1.20
2022-09-06T01:07:00.017Z,1.30
2022-09-06T01:09:50.457Z,1.05
2022-09-06T01:12:38.626Z,1.35
2022-09-06T01:15:20.861Z,1.17
2022-09-06T01:18:28.393Z,1.30
2022-09-06T01:21:27.825Z,1.30
2022-09-06T01:24:06.514Z,1.08
2022-09-06T01:26:45.620Z,1.10
2022-09-06T01:29:39.263Z,1.10
2022-09-06T01:32:17.049Z,1.30
2022-09-06T01:34:56.673Z,1.27
2022-09-06T01:37:24.492Z,1.30
2022-09-06T01:39:51.422Z,1.40
2022-09-06T01:42:22.889Z,1.20
2022-09-06T01:45:04.229Z,1.27
2022-09-06T01:47:57.545Z,1.40
2022-09-06T01:50:58.184Z,1.30
2022-09-06T01:53:43.333Z,1.30
2022-09-06T01:56:31.673Z,1.30
2022-09-06T01:59:13.450Z,1.23
2022-09-06T02:01:43.239Z,1.40
2022-09-06T02:04:16.122Z,1.40
2022-09-06T02:06:58.427Z,1.40
2022-09-06T02:09:27.935Z,1.35
2022-09-06T02:11:59.574Z,1.40
2022-09-06T02:14:49.750Z,1.40
2022-09-06T02:17:21.445Z,1.35
2022-09-06T02:19:58.238Z,1.40
2022-09-06T02:22:30.098Z,1.45
2022-09-06T02:25:00.427Z,1.60
2022-09-06T02:27:30.666Z,1.40
2022-09-06T02:29:58.240Z,1.40
2022-09-06T02:32:26.459Z,1.70
2022-09-06T02:34:56.623Z,1.50
2022-09-06T02:37:26.244Z,1.48
2022-09-06T02:39:56.221Z,1.60
2022-09-06T02:42:24.128Z,1.55
2022-09-06T02:44:51.194Z,1.60
2022-09-06T02:47:18.446Z,1.58
2022-09-06T02:49:45.545Z,1.50
2022-09-06T02:52:12.509Z,1.65
2022-09-06T02:54:39.389Z,1.50
2022-09-06T02:57:06.466Z,1.42
2022-09-06T02:59:33.397Z,1.63
2022-09-06T03:02:00.342Z,1.70
2022-09-06T03:04:27.377Z,1.65
2022-09-06T03:06:54.314Z,1.70
2022-09-06T03:09:21.357Z,1.60
2022-09-06T03:11:48.253Z,1.48
2022-09-06T03:14:16.982Z,1.75
2022-09-06T03:16:43.908Z,1.70
2022-09-06T03:19:11.158Z,1.65
2022-09-06T03:21:37.982Z,1.70
2022-09-06T03:24:05.032Z,1.67
2022-09-06T03:26:31.996Z,1.60
2022-09-06T03:28:58.861Z,1.77
2022-09-06T03:31:25.834Z,1.70
2022-09-06T03:33:52.787Z,1.80
2022-09-06T03:36:19.803Z,1.52
2022-09-06T03:38:46.803Z,1.80
2022-09-06T03:41:13.814Z,1.98
2022-09-06T03:43:40.770Z,1.65
2022-09-06T03:46:10.812Z,1.92
2022-09-06T03:48:37.741Z,1.75
2022-09-06T03:51:05.504Z,1.77
2022-09-06T03:53:32.386Z,1.90
2022-09-06T03:55:59.423Z,1.80
2022-09-06T03:58:31.008Z,1.85
2022-09-06T04:01:08.753Z,1.73
2022-09-06T04:03:36.973Z,1.88
2022-09-06T04:06:05.038Z,1.85
2022-09-06T04:08:32.809Z,1.55
2022-09-06T04:11:00.391Z,1.73
2022-09-06T04:13:29.260Z,2.00
2022-09-06T04:15:56.202Z,2.10
2022-09-06T04:18:23.794Z,1.98
2022-09-06T04:20:52.471Z,1.90
2022-09-06T04:23:20.263Z,2.22
2022-09-06T04:25:52.396Z,2.00
2022-09-06T04:28:20.235Z,1.80
2022-09-06T04:31:04.735Z,1.92
2022-09-06T04:33:33.663Z,1.95
2022-09-06T04:36:02.592Z,1.80
2022-09-06T04:38:34.236Z,1.95
2022-09-06T04:41:01.189Z,2.00
2022-09-06T04:43:28.143Z,1.88
2022-09-06T04:45:55.158Z,1.90
2022-09-06T04:48:22.421Z,1.90
2022-09-06T04:50:49.546Z,2.20
2022-09-06T04:53:16.487Z,2.20
2022-09-06T04:55:43.383Z,2.40
2022-09-06T04:58:10.268Z,1.95
2022-09-06T05:00:39.399Z,2.58
2022-09-06T05:03:07.187Z,2.10
2022-09-06T05:05:34.045Z,2.88
2022-09-06T05:08:07.480Z,2.40
2022-09-06T05:10:41.239Z,2.38
2022-09-06T05:13:08.086Z,2.20
2022-09-06T05:15:35.012Z,2.10
2022-09-06T05:18:04.074Z,2.40
2022-09-06T05:20:31.396Z,2.60
2022-09-06T05:22:58.461Z,2.33
2022-09-06T05:25:25.293Z,2.40
2022-09-06T05:27:52.082Z,2.13
2022-09-06T05:30:19.711Z,2.25
2022-09-06T05:32:46.761Z,2.28
2022-09-06T05:35:13.786Z,2.30
2022-09-06T05:37:41.035Z,2.20
2022-09-06T05:40:08.496Z,2.30
2022-09-06T05:42:35.494Z,2.38
2022-09-06T05:45:02.344Z,2.20
2022-09-06T05:47:31.167Z,2.63
2022-09-06T05:49:57.978Z,2.30
2022-09-06T05:52:24.923Z,3.00
2022-09-06T05:54:56.071Z,2.78
2022-09-06T05:57:22.982Z,2.58
2022-09-06T05:59:49.877Z,2.40
2022-09-06T06:02:16.831Z,2.80
2022-09-06T06:04:43.829Z,2.50
2022-09-06T06:07:10.995Z,2.70
2022-09-06T06:09:37.935Z,2.50
2022-09-06T06:12:04.878Z,2.60
2022-09-06T06:14:31.736Z,2.20
2022-09-06T06:16:59.020Z,2.53
2022-09-06T06:19:26.696Z,2.22
2022-09-06T06:21:53.665Z,2.50
2022-09-06T06:24:20.499Z,3.47
2022-09-06T06:26:47.450Z,3.50
2022-09-06T06:29:14.494Z,3.45
2022-09-06T06:31:41.635Z,2.95
2022-09-06T06:34:09.182Z,3.08
2022-09-06T06:36:37.159Z,3.38
2022-09-06T06:39:06.834Z,3.30
2022-09-06T06:41:33.973Z,3.00
2022-09-06T06:44:02.971Z,2.60
2022-09-06T06:46:32.787Z,2.60
2022-09-06T06:49:00.055Z,2.70
2022-09-06T06:51:29.415Z,2.45
2022-09-06T06:53:56.955Z,3.00
2022-09-06T06:56:36.301Z,2.60
2022-09-06T06:59:05.393Z,2.17
2022-09-06T07:01:33.828Z,2.35
2022-09-06T07:04:01.109Z,2.50
2022-09-06T07:09:18.151Z,2.88
2022-09-06T07:11:45.825Z,3.13
2022-09-06T07:14:12.695Z,2.75
2022-09-06T07:16:39.779Z,3.20
2022-09-06T07:19:06.971Z,2.60
2022-09-06T07:21:37.319Z,3.10
2022-09-06T07:24:08.525Z,2.90
2022-09-06T07:26:38.447Z,3.20
2022-09-06T07:29:06.889Z,3.00
2022-09-06T07:34:22.317Z,3.10
2022-09-06T07:36:55.907Z,2.80
2022-09-06T07:39:23.455Z,3.22
2022-09-06T07:41:50.456Z,3.40
2022-09-06T07:44:17.535Z,3.30
2022-09-06T07:46:44.383Z,2.97
2022-09-06T07:49:11.318Z,3.28
2022-09-06T07:51:38.205Z,3.53
2022-09-06T07:54:29.238Z,3.03
2022-09-06T07:56:53.690Z,2.72
2022-09-06T07:59:20.672Z,2.60
2022-09-06T08:01:48.367Z,3.53
2022-09-06T08:04:15.878Z,4.38
2022-09-06T08:09:33.382Z,4.15
2022-09-06T08:12:06.510Z,3.90
2022-09-06T08:14:33.943Z,4.28
2022-09-06T08:17:01.251Z,5.47
2022-09-06T08:19:28.199Z,5.60
2022-09-06T08:21:56.080Z,4.78
2022-09-06T08:24:22.994Z,4.20
2022-09-06T08:26:50.189Z,4.00
2022-09-06T08:29:17.542Z,4.07
2022-09-06T08:31:45.298Z,3.65
2022-09-06T08:34:14.113Z,3.92
2022-09-06T08:36:41.842Z,3.60
2022-09-06T08:39:10.246Z,4.07
2022-09-06T08:41:57.763Z,3.70
2022-09-06T08:47:21.424Z,3.00
2022-09-06T08:49:54.852Z,3.70
2022-09-06T08:52:49.363Z,3.15
2022-09-06T08:55:30.144Z,3.83
2022-09-06T08:58:18.222Z,3.22
2022-09-06T09:00:58.719Z,3.30
2022-09-06T09:03:34.713Z,3.50
2022-09-06T09:06:05.385Z,3.58
2022-09-06T09:09:03.128Z,3.65
2022-09-06T09:11:30.148Z,3.05
2022-09-06T09:14:04.375Z,3.20
2022-09-06T09:16:31.383Z,3.38
2022-09-06T09:19:04.639Z,2.90
2022-09-06T09:21:36.235Z,2.95
2022-09-06T09:24:09.287Z,2.67
2022-09-06T09:26:58.609Z,2.38
2022-09-06T09:29:28.705Z,2.47
2022-09-06T09:31:56.497Z,2.25
2022-09-06T09:34:41.650Z,2.90
2022-09-06T09:40:25.990Z,2.17
2022-09-06T09:42:54.892Z,2.10
2022-09-06T09:45:30.530Z,2.38
2022-09-06T09:48:05.477Z,2.20
2022-09-06T09:50:35.089Z,2.05
2022-09-06T09:53:14.416Z,1.88
2022-09-06T09:55:42.320Z,2.03
2022-09-06T09:58:30.794Z,2.17
2022-09-06T10:01:33.818Z,2.30
2022-09-06T10:09:41.510Z,2.95
2022-09-06T10:12:08.511Z,2.30
2022-09-06T10:14:47.251Z,2.38
2022-09-06T10:17:32.763Z,2.30
2022-09-06T10:20:09.289Z,2.47
2022-09-06T10:22:45.150Z,2.10
2022-09-06T10:25:30.639Z,2.30
2022-09-06T10:28:29.778Z,2.50
2022-09-06T10:31:08.889Z,2.33
2022-09-06T10:34:01.742Z,2.15
2022-09-06T10:36:37.500Z,2.42
2022-09-06T10:39:46.096Z,2.20
2022-09-06T10:42:28.067Z,2.15
2022-09-06T10:45:16.752Z,2.50
2022-09-06T10:48:04.796Z,2.50
2022-09-06T10:50:38.002Z,2.10
2022-09-06T10:53:13.715Z,2.60
2022-09-06T10:55:47.804Z,2.50
2022-09-06T10:58:23.113Z,2.25
2022-09-06T11:00:53.185Z,2.42
2022-09-06T11:06:17.265Z,1.90
2022-09-06T11:09:21.621Z,1.70
2022-09-06T11:12:09.686Z,1.90
2022-09-06T11:14:38.030Z,1.50
2022-09-06T11:17:13.953Z,1.80
2022-09-06T11:19:58.551Z,1.50
2022-09-06T11:22:35.966Z,1.70
2022-09-06T11:25:27.446Z,1.67
2022-09-06T11:27:58.249Z,1.60
2022-09-06T11:30:26.729Z,1.40
2022-09-06T11:33:13.342Z,1.70
2022-09-06T11:35:41.991Z,1.95
2022-09-06T11:38:22.171Z,1.75
2022-09-06T11:40:56.324Z,1.50
2022-09-06T11:43:50.159Z,1.70
2022-09-06T11:46:35.457Z,1.98
2022-09-06T11:49:08.604Z,1.80
2022-09-06T11:54:14.909Z,2.35
2022-09-06T11:57:11.857Z,1.73
2022-09-06T12:00:04.574Z,1.50
2022-09-06T12:02:41.160Z,1.55
2022-09-06T12:05:16.488Z,1.10
2022-09-06T12:08:12.962Z,1.35
2022-09-06T12:10:39.888Z,1.40
2022-09-06T12:13:34.414Z,1.20
2022-09-06T12:16:02.426Z,1.70
2022-09-06T12:18:47.610Z,1.77
2022-09-06T12:21:33.393Z,1.60
2022-09-06T12:24:00.598Z,1.30
2022-09-06T12:26:55.272Z,1.40
2022-09-06T12:29:25.618Z,1.45
2022-09-06T12:31:55.042Z,1.20
2022-09-06T12:34:28.739Z,1.25
2022-09-06T12:37:00.405Z,1.38
2022-09-06T12:39:27.933Z,1.67
2022-09-06T12:42:04.982Z,1.20
2022-09-06T12:44:33.720Z,1.50
2022-09-06T12:47:17.538Z,1.42
2022-09-06T12:52:18.790Z,1.60
2022-09-06T12:54:50.037Z,1.80
2022-09-06T12:57:22.470Z,1.52
2022-09-06T12:59:54.365Z,2.20
2022-09-06T13:02:32.581Z,1.80
2022-09-06T13:05:08.748Z,2.03
2022-09-06T13:07:41.350Z,2.38
2022-09-06T13:10:09.350Z,2.50
2022-09-06T13:12:42.912Z,2.50
2022-09-06T13:15:29.206Z,2.22
2022-09-06T13:18:35.498Z,2.40
2022-09-06T13:21:05.706Z,2.63
2022-09-06T13:23:47.654Z,2.20
2022-09-06T13:26:15.035Z,2.50
2022-09-06T13:28:41.994Z,2.40
2022-09-06T13:31:17.836Z,2.08
2022-09-06T13:33:46.392Z,2.00
2022-09-06T13:36:19.557Z,2.45
2022-09-06T13:38:46.810Z,2.83
2022-09-06T13:41:25.854Z,2.53
2022-09-06T13:44:25.583Z,2.80
2022-09-06T13:46:55.776Z,2.63
2022-09-06T13:49:23.809Z,2.38
2022-09-06T13:51:56.530Z,2.22
2022-09-06T13:54:23.479Z,1.40
2022-09-06T13:56:50.685Z,1.70
2022-09-06T13:59:18.671Z,1.80
2022-09-06T14:02:00.475Z,2.08
2022-09-06T14:04:27.715Z,2.10
2022-09-06T14:06:54.671Z,2.13
2022-09-06T14:09:21.546Z,2.10
2022-09-06T14:11:48.625Z,2.00
2022-09-06T14:14:17.748Z,1.50
2022-09-06T14:16:45.819Z,1.83
2022-09-06T14:19:13.098Z,1.88
2022-09-06T14:21:40.415Z,2.20
2022-09-06T14:24:07.480Z,1.80
2022-09-06T14:26:36.658Z,2.00
2022-09-06T14:29:04.439Z,2.67
2022-09-06T14:31:32.711Z,2.00
2022-09-06T14:34:00.993Z,2.10
2022-09-06T14:36:29.657Z,2.00
2022-09-06T14:38:58.552Z,1.70
2022-09-06T14:41:26.382Z,2.42
2022-09-06T14:43:55.223Z,2.60
2022-09-06T14:46:24.180Z,2.42
2022-09-06T14:49:02.443Z,1.58
2022-09-06T14:51:30.507Z,1.40
2022-09-06T14:54:10.873Z,1.58
2022-09-06T14:56:40.078Z,2.13
2022-09-06T14:59:09.112Z,1.25
2022-09-06T15:01:38.523Z,1.50
2022-09-06T15:04:08.234Z,1.52
2022-09-06T15:06:37.180Z,1.60
2022-09-06T15:09:05.649Z,2.28
2022-09-06T15:11:35.002Z,1.75
2022-09-06T15:14:03.962Z,1.67
2022-09-06T15:16:32.587Z,1.90
2022-09-06T15:19:00.002Z,2.35
2022-09-06T15:21:27.021Z,1.40
2022-09-06T15:23:54.072Z,1.77
2022-09-06T15:26:21.521Z,1.50
2022-09-06T15:28:48.975Z,1.50
2022-09-06T15:31:17.395Z,1.20
2022-09-06T15:33:44.467Z,1.15
2022-09-06T15:36:11.963Z,1.10
2022-09-06T15:38:49.982Z,1.02
2022-09-06T15:41:26.299Z,1.20
2022-09-06T15:43:56.857Z,1.10
2022-09-06T15:46:55.402Z,1.10
2022-09-06T15:49:32.760Z,0.93
2022-09-06T15:52:02.328Z,1.10
2022-09-06T15:54:48.597Z,1.00
2022-09-06T15:57:17.202Z,0.98
2022-09-06T15:59:44.831Z,1.30
2022-09-06T16:02:12.071Z,1.40
2022-09-06T16:04:39.313Z,1.20
2022-09-06T16:07:06.746Z,1.20
2022-09-06T16:09:33.859Z,1.30
2022-09-06T16:12:01.902Z,1.00
2022-09-06T16:14:28.970Z,1.33
2022-09-06T16:16:57.470Z,1.40
2022-09-06T16:19:26.165Z,1.27
2022-09-06T16:21:53.436Z,1.40
2022-09-06T16:24:21.309Z,1.13
2022-09-06T16:26:48.294Z,1.17
2022-09-06T16:29:17.992Z,1.38
2022-09-06T16:31:45.821Z,1.38
2022-09-06T16:34:13.522Z,1.20
2022-09-06T16:36:41.280Z,1.90
2022-09-06T16:39:08.848Z,2.38
2022-09-06T16:41:40.680Z,1.85
2022-09-06T16:44:10.054Z,1.42
2022-09-06T16:46:40.055Z,1.50
2022-09-06T16:49:07.238Z,1.58
2022-09-06T16:51:36.959Z,1.67
2022-09-06T16:54:04.283Z,1.60
2022-09-06T16:56:34.719Z,1.20
2022-09-06T16:59:11.358Z,1.30
2022-09-06T17:01:42.037Z,1.30
2022-09-06T17:04:09.976Z,1.30
2022-09-06T17:06:44.215Z,1.10
2022-09-06T17:11:40.521Z,1.30
2022-09-06T17:14:08.210Z,1.10
2022-09-06T17:16:54.412Z,0.93
2022-09-06T17:19:25.876Z,1.00
2022-09-06T17:21:52.760Z,0.90
2022-09-06T17:24:20.405Z,0.95
2022-09-06T17:26:47.863Z,0.88
2022-09-06T17:29:15.342Z,0.80
2022-09-06T17:31:42.583Z,1.05
2022-09-06T17:34:09.555Z,1.10
2022-09-06T17:36:37.372Z,1.00
2022-09-06T17:39:07.554Z,0.90
2022-09-06T17:41:39.694Z,1.02
2022-09-06T17:44:11.225Z,0.98
2022-09-06T17:46:47.612Z,1.00
2022-09-06T17:49:19.518Z,1.00
2022-09-06T17:51:46.978Z,1.20
2022-09-06T17:54:14.738Z,1.00
2022-09-06T17:56:41.764Z,1.00
2022-09-06T17:59:14.009Z,1.05
2022-09-06T18:01:42.891Z,1.02
2022-09-06T18:04:11.377Z,1.00
2022-09-06T18:06:40.812Z,1.20
2022-09-06T18:09:11.670Z,1.10
2022-09-06T18:11:40.019Z,1.10
2022-09-06T18:14:10.183Z,1.27
2022-09-06T18:16:40.202Z,1.00
2022-09-06T18:19:08.474Z,1.25
2022-09-06T18:21:37.687Z,1.20
2022-09-06T18:24:05.959Z,1.00
2022-09-06T18:26:39.279Z,1.10
2022-09-06T18:29:13.114Z,1.20
2022-09-06T18:31:40.913Z,1.23
2022-09-06T18:34:08.890Z,1.08
2022-09-06T18:36:36.800Z,1.10
2022-09-06T18:39:05.028Z,1.05
2022-09-06T18:41:51.961Z,1.20
2022-09-06T18:44:19.342Z,1.25
2022-09-06T18:46:47.199Z,1.45
2022-09-06T18:49:15.481Z,1.05
2022-09-06T18:51:44.788Z,1.20
2022-09-06T18:54:12.227Z,1.17
2022-09-06T18:56:39.588Z,1.10
2022-09-06T18:59:07.266Z,1.10
2022-09-06T19:01:37.735Z,1.42
2022-09-06T19:04:06.330Z,1.40
2022-09-06T19:06:35.621Z,1.15
2022-09-06T19:09:06.455Z,1.20
2022-09-06T19:11:33.854Z,1.20
2022-09-06T19:14:01.211Z,1.48
2022-09-06T19:16:29.764Z,1.40
2022-09-06T19:19:00.831Z,1.38
2022-09-06T19:21:27.720Z,1.40
2022-09-06T19:23:57.762Z,1.20
2022-09-06T19:26:26.794Z,1.50
2022-09-06T19:28:59.868Z,1.27
2022-09-06T19:31:29.468Z,1.40
2022-09-06T19:33:57.035Z,1.30
2022-09-06T19:36:28.993Z,1.40
2022-09-06T19:39:06.269Z,1.45
2022-09-06T19:41:38.099Z,1.35
2022-09-06T19:44:07.780Z,1.23
2022-09-06T19:46:35.214Z,1.25
2022-09-06T19:49:02.288Z,1.38
2022-09-06T19:51:30.348Z,1.38
2022-09-06T19:53:58.223Z,1.50
2022-09-06T19:56:32.795Z,1.40
2022-09-06T19:59:12.175Z,1.65
2022-09-06T20:01:40.352Z,1.40
2022-09-06T20:04:09.030Z,1.30
2022-09-06T20:06:39.716Z,1.70
2022-09-06T20:09:09.343Z,1.50
2022-09-06T20:11:38.163Z,1.48
2022-09-06T20:14:08.941Z,1.38
2022-09-06T20:16:40.614Z,1.60
2022-09-06T20:19:08.793Z,1.40
2022-09-06T20:21:35.754Z,1.42
2022-09-06T20:24:03.140Z,1.42
2022-09-06T20:26:30.890Z,1.58
2022-09-06T20:29:00.834Z,1.40
2022-09-06T20:31:30.110Z,1.50
2022-09-06T20:34:00.606Z,1.60
2022-09-06T20:36:28.461Z,1.55
2022-09-06T20:38:55.456Z,1.50
2022-09-06T20:41:25.216Z,1.48
2022-09-06T20:43:54.861Z,1.52
2022-09-06T20:46:24.335Z,1.40
2022-09-06T20:48:52.159Z,1.90
2022-09-06T20:51:23.954Z,1.60
2022-09-06T20:53:55.997Z,1.67
2022-09-06T20:56:28.610Z,1.80
2022-09-06T20:58:59.353Z,1.60
2022-09-06T21:01:47.291Z,1.73
2022-09-06T21:04:21.581Z,1.80
2022-09-06T21:06:58.279Z,1.90
2022-09-06T21:09:25.242Z,1.75
2022-09-06T21:12:05.234Z,2.10
2022-09-06T21:14:39.265Z,1.98
2022-09-06T21:17:19.242Z,1.90
2022-09-06T21:20:06.691Z,1.80
2022-09-06T21:22:34.689Z,1.67
2022-09-06T21:25:15.347Z,1.80
2022-09-06T21:27:52.643Z,2.00
2022-09-06T21:30:24.082Z,2.17
2022-09-06T21:32:53.911Z,2.00
2022-09-06T21:35:20.943Z,2.13
2022-09-06T21:37:47.912Z,1.92
2022-09-06T21:40:15.223Z,1.90
2022-09-06T21:42:42.153Z,2.08
2022-09-06T21:45:09.699Z,2.00
2022-09-06T21:47:36.593Z,2.03
2022-09-06T21:50:03.659Z,1.90
2022-09-06T21:52:32.366Z,2.00
2022-09-06T21:54:59.523Z,2.30
2022-09-06T21:57:26.891Z,2.13
2022-09-06T21:59:53.686Z,2.40
2022-09-06T22:02:21.462Z,2.17
2022-09-06T22:04:49.388Z,2.17
2022-09-06T22:07:16.236Z,2.25
2022-09-06T22:09:43.472Z,2.20
2022-09-06T22:12:10.368Z,2.25
2022-09-06T22:14:37.394Z,2.50
2022-09-06T22:17:04.519Z,2.10
2022-09-06T22:19:31.464Z,2.30
2022-09-06T22:21:58.541Z,2.25
2022-09-06T22:24:25.563Z,2.40
2022-09-06T22:26:52.399Z,2.35
2022-09-06T22:29:19.447Z,2.33
2022-09-06T22:31:46.791Z,2.47
2022-09-06T22:34:13.961Z,2.30
2022-09-06T22:36:40.948Z,2.50
2022-09-06T22:39:09.429Z,2.60
2022-09-06T22:41:36.504Z,2.40
2022-09-06T22:44:04.017Z,2.67
2022-09-06T22:46:31.921Z,2.55
2022-09-06T22:48:59.270Z,2.40
2022-09-06T22:51:26.497Z,2.38
2022-09-06T22:53:53.671Z,2.60
2022-09-06T22:56:21.076Z,2.55
2022-09-06T22:58:48.084Z,2.58
2022-09-06T23:01:16.705Z,2.55
2022-09-06T23:03:44.688Z,2.70
2022-09-06T23:06:24.488Z,2.40
2022-09-06T23:08:53.168Z,2.72
2022-09-06T23:11:20.146Z,3.38
2022-09-06T23:13:47.384Z,2.55
2022-09-06T23:16:19.318Z,3.20
2022-09-06T23:18:46.826Z,3.67
2022-09-06T23:21:18.269Z,3.10
2022-09-06T23:23:45.881Z,3.50
2022-09-06T23:26:24.448Z,2.78
2022-09-06T23:28:56.334Z,2.97
2022-09-06T23:31:25.665Z,3.00
2022-09-06T23:33:53.916Z,2.88
2022-09-06T23:36:21.312Z,2.38
2022-09-06T23:38:48.667Z,2.65
2022-09-06T23:41:15.994Z,2.55
2022-09-06T23:43:43.721Z,2.50
2022-09-06T23:46:13.289Z,2.33
2022-09-06T23:48:40.574Z,2.38
2022-09-06T23:51:07.886Z,2.58
2022-09-06T23:53:35.361Z,2.40
2022-09-06T23:56:02.745Z,2.38
2022-09-06T23:58:29.795Z,2.30
